Time;durP1;ratioP1;P1;durP2;ratioP2;P2;SDS_P1;SDS_P2;PMS_P1;PMS_P2;Temp;Humidity;BMP_temperature;BMP_pressure;BME280_temperature;BME280_humidity;BME280_pressure;Samples;Min_cycle;Max_cycle;Signal;HPM_P1;HPM_P2
2021/07/30 00:01:11;;;;;;;11.57;8.18;;;;;;;;;;5053362;28;20478;-55
2021/07/30 00:03:37;;;;;;;10.98;8.35;;;;;;;;;;5053638;28;20025;-56
2021/07/30 00:06:03;;;;;;;10.02;8.20;;;;;;;;;;5053610;28;20029;-57
2021/07/30 00:08:29;;;;;;;13.95;8.13;;;;;;;;;;5053615;28;20138;-51
2021/07/30 00:10:58;;;;;;;9.65;8.65;;;;;;;;;;5053599;28;20037;-54
2021/07/30 00:13:24;;;;;;;15.68;8.75;;;;;;;;;;5053748;28;20136;-54
2021/07/30 00:15:50;;;;;;;11.60;8.48;;;;;;;;;;5035348;28;20041;-56
2021/07/30 00:18:16;;;;;;;13.73;7.88;;;;;;;;;;5035081;28;20088;-58
2021/07/30 00:20:43;;;;;;;14.63;8.25;;;;;;;;;;5053420;28;20042;-54
2021/07/30 00:23:09;;;;;;;9.05;7.63;;;;;;;;;;5053482;28;20037;-55
2021/07/30 00:25:35;;;;;;;9.85;7.85;;;;;;;;;;5053014;28;20424;-53
2021/07/30 00:28:02;;;;;;;10.55;7.43;;;;;;;;;;5053516;28;20367;-54
2021/07/30 00:30:28;;;;;;;10.20;7.82;;;;;;;;;;5034883;28;20055;-53
2021/07/30 00:32:54;;;;;;;12.23;8.93;;;;;;;;;;5034975;28;20049;-54
2021/07/30 00:35:20;;;;;;;11.70;8.63;;;;;;;;;;5034907;28;20120;-55
2021/07/30 00:37:47;;;;;;;15.13;8.82;;;;;;;;;;5053283;28;20388;-55
2021/07/30 00:40:13;;;;;;;12.07;8.98;;;;;;;;;;5051485;28;20041;-53
2021/07/30 00:42:49;;;;;;;12.63;8.80;;;;;;;;;;5034939;28;20064;-55
2021/07/30 00:45:15;;;;;;;18.00;10.32;;;;;;;;;;5053416;28;20051;-53
2021/07/30 00:47:41;;;;;;;10.50;8.85;;;;;;;;;;5034958;28;20041;-53
2021/07/30 00:50:08;;;;;;;13.20;8.85;;;;;;;;;;5030958;28;20409;-52
2021/07/30 00:52:34;;;;;;;13.60;9.23;;;;;;;;;;5031027;28;20050;-56
2021/07/30 00:55:00;;;;;;;11.98;9.50;;;;;;;;;;5031345;28;20041;-52
2021/07/30 00:57:26;;;;;;;13.57;9.45;;;;;;;;;;5031230;28;20033;-55
2021/07/30 00:59:52;;;;;;;19.15;11.15;;;;;;;;;;5031011;28;20053;-54
2021/07/30 01:02:19;;;;;;;21.98;12.25;;;;;;;;;;5031555;28;20037;-55
2021/07/30 01:04:45;;;;;;;17.35;10.40;;;;;;;;;;5031091;28;20463;-54
2021/07/30 01:07:11;;;;;;;16.83;9.75;;;;;;;;;;5031302;28;20033;-55
2021/07/30 01:09:37;;;;;;;18.30;10.77;;;;;;;;;;5031095;28;20049;-56
2021/07/30 01:12:04;;;;;;;17.88;9.82;;;;;;;;;;5032080;28;20026;-56
2021/07/30 01:14:30;;;;;;;18.88;10.18;;;;;;;;;;5018429;28;20125;-54
2021/07/30 01:16:57;;;;;;;17.77;10.23;;;;;;;;;;5034793;28;20032;-52
2021/07/30 01:19:24;;;;;;;14.93;9.63;;;;;;;;;;5002463;28;20120;-56
2021/07/30 01:21:55;;;;;;;15.65;9.68;;;;;;;;;;5052664;28;20079;-55
2021/07/30 01:24:21;;;;;;;15.45;9.18;;;;;;;;;;5056869;28;20032;-53
2021/07/30 01:26:48;;;;;;;14.07;10.05;;;;;;;;;;5056797;28;20033;-55
2021/07/30 01:29:14;;;;;;;14.25;9.57;;;;;;;;;;5056573;28;20032;-55
2021/07/30 01:31:41;;;;;;;14.55;9.43;;;;;;;;;;5038259;28;20383;-56
2021/07/30 01:34:07;;;;;;;15.10;10.68;;;;;;;;;;5056501;28;20108;-56
2021/07/30 01:36:35;;;;;;;16.58;11.32;;;;;;;;;;5056377;28;20028;-54
2021/07/30 01:39:01;;;;;;;13.27;10.32;;;;;;;;;;5056875;28;20040;-54
2021/07/30 01:41:28;;;;;;;12.13;10.30;;;;;;;;;;5056396;28;20053;-58
2021/07/30 01:43:54;;;;;;;12.35;9.60;;;;;;;;;;5056326;28;20036;-52
2021/07/30 01:46:20;;;;;;;12.95;9.30;;;;;;;;;;5056245;28;20483;-56
2021/07/30 01:48:49;;;;;;;13.45;10.05;;;;;;;;;;5056124;28;20025;-54
2021/07/30 01:51:15;;;;;;;14.13;10.77;;;;;;;;;;5005863;28;20455;-56
2021/07/30 01:53:41;;;;;;;13.02;8.82;;;;;;;;;;5056155;28;20487;-56
2021/07/30 01:56:07;;;;;;;12.80;8.65;;;;;;;;;;5056031;28;20029;-52
2021/07/30 01:58:34;;;;;;;13.95;9.30;;;;;;;;;;5056341;28;20033;-55
2021/07/30 02:01:01;;;;;;;13.23;9.57;;;;;;;;;;5055953;28;20143;-57
2021/07/30 02:03:27;;;;;;;14.07;8.98;;;;;;;;;;5055951;28;20021;-53
2021/07/30 02:05:53;;;;;;;14.50;9.20;;;;;;;;;;5055750;28;20123;-53
2021/07/30 02:08:19;;;;;;;14.85;9.25;;;;;;;;;;5055792;28;20017;-55
2021/07/30 02:10:46;;;;;;;14.90;9.00;;;;;;;;;;5056256;28;20045;-53
2021/07/30 02:15:57;;;;;;;15.65;8.70;;;;;;;;;;5055844;28;20087;-57
2021/07/30 02:18:23;;;;;;;12.65;8.32;;;;;;;;;;5037319;28;20048;-52
2021/07/30 02:20:49;;;;;;;10.48;8.38;;;;;;;;;;5055528;28;20055;-55
2021/07/30 02:23:15;;;;;;;12.15;8.48;;;;;;;;;;5055173;28;20025;-57
2021/07/30 02:25:41;;;;;;;16.08;9.23;;;;;;;;;;5037141;28;20048;-55
2021/07/30 02:28:08;;;;;;;10.15;7.75;;;;;;;;;;5037133;28;20041;-56
2021/07/30 02:30:34;;;;;;;9.18;7.90;;;;;;;;;;5055315;28;20036;-54
2021/07/30 02:33:00;;;;;;;11.52;8.32;;;;;;;;;;5055560;28;20029;-56
2021/07/30 02:35:26;;;;;;;12.18;8.43;;;;;;;;;;5055516;28;20025;-54
2021/07/30 02:37:52;;;;;;;13.77;7.43;;;;;;;;;;5037061;28;20037;-55
2021/07/30 02:40:18;;;;;;;10.48;7.13;;;;;;;;;;5035023;28;20511;-55
2021/07/30 02:42:44;;;;;;;15.88;8.57;;;;;;;;;;5035277;28;20048;-58
2021/07/30 02:45:31;;;;;;;12.40;7.22;;;;;;;;;;5033664;28;20064;-55
2021/07/30 02:47:57;;;;;;;11.27;7.28;;;;;;;;;;5013157;28;20095;-56
2021/07/30 02:50:23;;;;;;;12.70;7.45;;;;;;;;;;5013176;28;20046;-57
2021/07/30 02:52:49;;;;;;;12.95;7.93;;;;;;;;;;5013315;28;20030;-56
2021/07/30 02:55:15;;;;;;;10.75;7.20;;;;;;;;;;5013331;28;20041;-55
2021/07/30 02:57:41;;;;;;;10.50;8.05;;;;;;;;;;5020825;28;20065;-56
2021/07/30 03:00:08;;;;;;;12.43;7.70;;;;;;;;;;5032734;28;20145;-51
2021/07/30 03:02:34;;;;;;;13.10;7.65;;;;;;;;;;5032827;28;20065;-54
2021/07/30 03:05:00;;;;;;;13.05;8.40;;;;;;;;;;5032574;28;20026;-56
2021/07/30 03:07:26;;;;;;;16.85;9.13;;;;;;;;;;5032472;28;20037;-55
2021/07/30 03:09:52;;;;;;;16.17;8.30;;;;;;;;;;5016185;28;20045;-53
2021/07/30 03:12:18;;;;;;;11.93;7.40;;;;;;;;;;5032620;28;20038;-58
2021/07/30 03:14:45;;;;;;;18.38;8.02;;;;;;;;;;4999486;28;20038;-53
2021/07/30 03:17:11;;;;;;;10.27;7.90;;;;;;;;;;5032547;28;20478;-53
2021/07/30 03:19:37;;;;;;;14.45;8.18;;;;;;;;;;5048911;28;20044;-55
2021/07/30 03:22:03;;;;;;;12.32;7.65;;;;;;;;;;5036139;28;20041;-55
2021/07/30 03:24:29;;;;;;;10.23;8.50;;;;;;;;;;5046573;28;20022;-53
2021/07/30 03:26:55;;;;;;;15.38;9.00;;;;;;;;;;5016393;28;20056;-54
2021/07/30 03:29:22;;;;;;;12.13;8.75;;;;;;;;;;5034460;28;20101;-56
2021/07/30 03:31:48;;;;;;;15.60;9.32;;;;;;;;;;4999729;28;20037;-57
2021/07/30 03:34:15;;;;;;;21.33;8.35;;;;;;;;;;5032669;28;20392;-53
2021/07/30 03:51:19;;;;;;;11.55;8.25;;;25.00;89.10;;;;;;5057081;28;20799;-53
2021/07/30 03:53:44;;;;;;;13.25;8.43;;;25.40;88.90;;;;;;5049389;28;20025;-56
2021/07/30 03:56:14;;;;;;;13.15;8.27;;;25.20;88.90;;;;;;5049323;28;20490;-54
2021/07/30 03:58:44;;;;;;;14.43;7.80;;;25.20;89.40;;;;;;5013172;28;20049;-53
2021/07/30 04:01:11;;;;;;;17.42;8.52;;;25.40;89.00;;;;;;5049174;28;20383;-54
2021/07/30 04:03:38;;;;;;;16.55;8.68;;;25.40;88.50;;;;;;5046185;28;20051;-53
2021/07/30 04:06:04;;;;;;;13.57;9.05;;;25.50;88.50;;;;;;5049004;28;20033;-53
2021/07/30 04:08:32;;;;;;;15.30;8.18;;;25.50;88.10;;;;;;5049425;28;20458;-57
2021/07/30 04:10:59;;;;;;;16.70;8.18;;;25.40;88.10;;;;;;5048746;28;20086;-54
2021/07/30 04:13:25;;;;;;;9.95;7.70;;;25.50;88.20;;;;;;5046488;28;20436;-54
2021/07/30 04:15:51;;;;;;;11.90;7.90;;;25.60;87.90;;;;;;5043623;28;20384;-55
2021/07/30 04:18:17;;;;;;;14.10;8.65;;;25.60;87.80;;;;;;5047751;28;20040;-52
2021/07/30 04:20:43;;;;;;;17.02;8.95;;;25.60;87.90;;;;;;5047939;28;20044;-55
2021/07/30 04:23:09;;;;;;;15.90;8.95;;;25.60;87.90;;;;;;5030177;28;20045;-54
2021/07/30 04:25:42;;;;;;;15.93;8.25;;;25.60;88.20;;;;;;5048158;28;20022;-53
2021/07/30 04:28:09;;;;;;;16.08;8.52;;;25.50;88.40;;;;;;5049624;28;20021;-54
2021/07/30 04:30:35;;;;;;;25.88;9.23;;;25.80;88.10;;;;;;5047226;28;20037;-54
2021/07/30 04:33:00;;;;;;;16.15;9.18;;;25.80;88.30;;;;;;5048224;28;20087;-53
2021/07/30 04:35:26;;;;;;;10.95;8.07;;;25.80;88.30;;;;;;5047807;28;20040;-54
2021/07/30 04:37:56;;;;;;;17.02;8.98;;;25.70;88.70;;;;;;5048500;28;20041;-52
2021/07/30 04:40:22;;;;;;;10.73;7.95;;;25.80;88.50;;;;;;5047931;28;20035;-53
2021/07/30 04:42:48;;;;;;;22.80;8.65;;;25.90;88.80;;;;;;5048189;28;20449;-51
2021/07/30 04:45:14;;;;;;;11.98;8.18;;;26.00;88.40;;;;;;5048034;28;20112;-55
2021/07/30 04:47:39;;;;;;;12.73;8.35;;;26.20;88.50;;;;;;5029043;28;20029;-54
2021/07/30 04:50:06;;;;;;;16.63;8.43;;;26.30;88.70;;;;;;5046395;28;20426;-55
2021/07/30 04:52:32;;;;;;;20.63;9.63;;;26.30;88.80;;;;;;4999548;28;20069;-56
2021/07/30 04:54:58;;;;;;;11.30;8.70;;;26.40;88.90;;;;;;5014387;28;20124;-54
2021/07/30 04:57:23;;;;;;;13.95;9.05;;;26.40;89.00;;;;;;5033894;28;20372;-54
2021/07/30 04:59:49;;;;;;;11.55;8.43;;;26.50;88.80;;;;;;5033606;28;20045;-52
2021/07/30 05:02:15;;;;;;;17.27;9.05;;;26.60;89.40;;;;;;5016340;28;20121;-52
2021/07/30 05:04:40;;;;;;;13.20;9.98;;;26.60;88.90;;;;;;5013801;28;20041;-54
2021/07/30 05:07:06;;;;;;;14.60;10.80;;;26.70;88.80;;;;;;5016268;28;20034;-55
2021/07/30 05:09:32;;;;;;;17.20;10.55;;;26.80;88.80;;;;;;5034080;28;20025;-53
2021/07/30 05:11:58;;;;;;;18.77;12.10;;;26.80;88.70;;;;;;5031953;28;20041;-54
2021/07/30 05:14:23;;;;;;;20.65;12.23;;;26.80;89.20;;;;;;5034420;28;20037;-52
2021/07/30 05:16:49;;;;;;;16.10;11.32;;;26.90;89.40;;;;;;5033743;28;20029;-53
2021/07/30 05:19:15;;;;;;;15.68;12.30;;;26.90;88.80;;;;;;5015699;28;20053;-52
2021/07/30 05:21:41;;;;;;;27.05;18.13;;;27.10;89.10;;;;;;5034914;28;20488;-51
2021/07/30 05:24:06;;;;;;;23.58;13.45;;;27.00;88.20;;;;;;5034031;28;20025;-51
2021/07/30 05:26:32;;;;;;;21.05;14.27;;;27.10;89.00;;;;;;5034389;28;20102;-60
2021/07/30 05:28:58;;;;;;;24.30;13.95;;;27.10;88.90;;;;;;5015523;28;20025;-61
2021/07/30 05:31:24;;;;;;;21.40;12.98;;;27.20;89.00;;;;;;5015765;28;20049;-61
2021/07/30 05:33:49;;;;;;;26.30;17.27;;;27.20;89.00;;;;;;5034224;28;20026;-55
2021/07/30 05:36:16;;;;;;;41.65;21.98;;;27.30;88.60;;;;;;5034084;28;20097;-60
2021/07/30 05:38:43;;;;;;;36.15;20.52;;;27.30;87.70;;;;;;5034485;28;20052;-56
2021/07/30 05:41:12;;;;;;;34.28;21.13;;;27.40;87.60;;;;;;5025966;28;20049;-56
2021/07/30 05:43:39;;;;;;;37.25;20.45;;;27.40;87.70;;;;;;5026526;28;20029;-62
2021/07/30 05:46:06;;;;;;;35.80;19.13;;;27.50;87.90;;;;;;5015214;28;20132;-59
2021/07/30 05:48:32;;;;;;;27.70;19.02;;;27.60;87.50;;;;;;5033254;28;20950;-59
2021/07/30 05:50:57;;;;;;;31.75;16.52;;;27.70;87.10;;;;;;5033264;28;20060;-54
2021/07/30 05:53:23;;;;;;;28.83;17.30;;;27.70;86.90;;;;;;5033042;28;20384;-60
2021/07/30 05:55:49;;;;;;;21.55;15.32;;;27.90;87.00;;;;;;5014878;28;20041;-55
2021/07/30 05:58:15;;;;;;;25.55;16.48;;;27.90;87.00;;;;;;5033228;28;20029;-56
2021/07/30 06:00:41;;;;;;;24.23;16.38;;;28.10;86.40;;;;;;5033952;28;20029;-59
2021/07/30 06:03:07;;;;;;;28.42;16.27;;;28.20;85.20;;;;;;5032978;28;20112;-61
2021/07/30 06:05:33;;;;;;;19.58;11.48;;;28.20;85.00;;;;;;5030133;28;20095;-54
2021/07/30 06:08:00;;;;;;;22.67;13.68;;;28.30;83.80;;;;;;5033401;28;20029;-58
2021/07/30 06:10:26;;;;;;;25.15;13.80;;;28.30;83.70;;;;;;5031172;28;20067;-58
2021/07/30 06:12:52;;;;;;;19.25;12.00;;;28.50;85.20;;;;;;5032297;28;20037;-61
2021/07/30 06:15:24;;;;;;;17.95;9.43;;;28.60;83.40;;;;;;5032966;28;20164;-59
2021/07/30 06:17:51;;;;;;;14.13;10.05;;;28.60;78.90;;;;;;5012981;28;20084;-59
2021/07/30 06:20:18;;;;;;;16.20;11.25;;;28.60;79.80;;;;;;5029598;28;20033;-60
2021/07/30 06:22:43;;;;;;;20.98;10.15;;;28.70;79.70;;;;;;5028061;28;20033;-54
2021/07/30 06:25:10;;;;;;;15.05;9.98;;;28.70;80.00;;;;;;4985214;28;20052;-54
2021/07/30 06:27:36;;;;;;;17.05;11.70;;;28.80;79.50;;;;;;5014767;28;20038;-55
2021/07/30 06:30:03;;;;;;;23.92;11.43;;;29.00;80.00;;;;;;5014222;28;20120;-64
2021/07/30 06:32:29;;;;;;;18.73;11.45;;;29.10;79.60;;;;;;4966375;28;20036;-57
2021/07/30 06:34:55;;;;;;;19.20;12.25;;;29.30;79.20;;;;;;5032874;28;20025;-54
2021/07/30 06:37:21;;;;;;;18.95;10.68;;;29.30;78.20;;;;;;5033016;28;20032;-52
2021/07/30 06:39:47;;;;;;;14.02;8.98;;;29.40;78.40;;;;;;5032857;28;20109;-59
2021/07/30 06:42:13;;;;;;;14.55;10.40;;;29.40;77.40;;;;;;5016032;28;20087;-52
2021/07/30 06:44:39;;;;;;;15.93;9.93;;;29.50;77.70;;;;;;5030979;28;20428;-58
2021/07/30 06:47:05;;;;;;;19.90;11.80;;;29.60;77.40;;;;;;5020783;28;20416;-57
2021/07/30 06:49:34;;;;;;;19.98;13.55;;;29.70;77.10;;;;;;5014159;28;20045;-52
2021/07/30 06:52:00;;;;;;;22.70;12.68;;;29.60;77.00;;;;;;5014046;28;20059;-54
2021/07/30 06:54:33;;;;;;;24.02;12.38;;;29.60;77.00;;;;;;5018599;28;20017;-51
2021/07/30 06:57:01;;;;;;;16.13;11.07;;;29.80;76.50;;;;;;5034052;28;20482;-52
2021/07/30 06:59:27;;;;;;;14.52;9.15;;;29.90;75.80;;;;;;4997438;28;20041;-52
2021/07/30 07:01:54;;;;;;;17.60;9.05;;;30.10;74.80;;;;;;5021401;28;20077;-51
2021/07/30 07:04:20;;;;;;;12.90;8.63;;;30.20;74.40;;;;;;5029089;28;20392;-50
2021/07/30 07:06:48;;;;;;;12.38;8.65;;;30.00;74.80;;;;;;5023657;28;20064;-49
2021/07/30 07:09:15;;;;;;;15.25;8.70;;;30.20;74.00;;;;;;5023191;28;20491;-50
2021/07/30 07:11:40;;;;;;;15.02;7.72;;;30.30;72.80;;;;;;5021659;28;20030;-52
2021/07/30 07:14:06;;;;;;;14.25;8.18;;;30.40;73.10;;;;;;5023040;28;20079;-50
2021/07/30 07:16:32;;;;;;;11.38;6.97;;;30.40;72.00;;;;;;5034067;28;20043;-53
2021/07/30 07:18:58;;;;;;;13.07;6.75;;;30.60;71.80;;;;;;5020343;28;20041;-50
2021/07/30 07:21:24;;;;;;;11.50;7.00;;;30.50;71.30;;;;;;5019526;28;20404;-49
2021/07/30 07:23:50;;;;;;;16.75;7.68;;;30.40;71.40;;;;;;5035999;28;20057;-46
2021/07/30 07:26:17;;;;;;;17.05;7.93;;;30.60;71.40;;;;;;5020589;28;20383;-49
2021/07/30 07:28:43;;;;;;;11.25;7.18;;;30.80;72.20;;;;;;5018351;28;20079;-47
2021/07/30 07:31:09;;;;;;;12.25;7.15;;;30.90;71.10;;;;;;5013532;28;20088;-50
2021/07/30 07:33:35;;;;;;;10.38;6.50;;;30.90;70.80;;;;;;5007988;28;20149;-51
2021/07/30 07:36:01;;;;;;;11.05;6.63;;;31.00;70.00;;;;;;4999941;28;20129;-50
2021/07/30 07:38:27;;;;;;;14.00;7.10;;;31.00;69.90;;;;;;5013922;28;20073;-49
2021/07/30 07:40:53;;;;;;;15.00;7.10;;;31.10;70.90;;;;;;5014673;28;20050;-49
2021/07/30 07:43:19;;;;;;;14.35;6.97;;;31.10;70.60;;;;;;5024717;28;20018;-49
2021/07/30 07:45:44;;;;;;;15.65;7.55;;;31.30;70.00;;;;;;5020429;28;20034;-48
2021/07/30 07:48:10;;;;;;;15.75;7.57;;;31.50;70.00;;;;;;5003072;28;20033;-49
2021/07/30 07:50:36;;;;;;;13.45;7.40;;;31.70;70.20;;;;;;5020657;28;20081;-50
2021/07/30 07:53:10;;;;;;;15.38;7.75;;;31.90;70.10;;;;;;5020562;28;20041;-49
2021/07/30 07:55:36;;;;;;;13.07;8.35;;;31.90;70.30;;;;;;5005406;28;20037;-50
2021/07/30 07:58:02;;;;;;;14.70;8.13;;;32.10;70.00;;;;;;5020439;28;20046;-48
2021/07/30 08:00:27;;;;;;;13.65;7.55;;;32.20;69.70;;;;;;5015566;28;20061;-48
2021/07/30 08:02:53;;;;;;;11.07;7.38;;;32.30;69.20;;;;;;4981045;28;20392;-52
2021/07/30 08:05:19;;;;;;;11.60;7.75;;;32.20;68.60;;;;;;5021546;28;20057;-49
2021/07/30 08:07:45;;;;;;;12.15;7.72;;;32.10;68.20;;;;;;5020097;28;20033;-51
2021/07/30 08:10:11;;;;;;;10.02;7.70;;;32.30;67.70;;;;;;5027238;28;20026;-51
2021/07/30 08:12:36;;;;;;;11.38;7.78;;;32.40;67.10;;;;;;5028816;28;20026;-51
2021/07/30 08:15:03;;;;;;;14.95;8.02;;;32.50;67.40;;;;;;5015364;28;20448;-48
2021/07/30 08:17:29;;;;;;;12.93;7.03;;;32.60;67.80;;;;;;4994925;28;20037;-49
2021/07/30 08:19:54;;;;;;;9.80;6.50;;;32.70;67.60;;;;;;5013915;28;20048;-48
2021/07/30 08:22:21;;;;;;;13.52;6.72;;;32.70;67.10;;;;;;5021150;28;20511;-50
2021/07/30 08:24:47;;;;;;;13.60;6.45;;;32.70;65.80;;;;;;5017206;28;20053;-50
2021/07/30 08:27:14;;;;;;;10.65;5.38;;;32.80;66.90;;;;;;5025330;28;20021;-49
2021/07/30 08:29:42;;;;;;;13.50;5.68;;;32.90;66.80;;;;;;5025829;28;20515;-51
2021/07/30 08:32:09;;;;;;;11.82;4.88;;;33.00;65.80;;;;;;5024696;28;20033;-50
2021/07/30 08:34:44;;;;;;;10.23;5.10;;;33.10;63.60;;;;;;5025930;28;20033;-49
2021/07/30 08:37:10;;;;;;;11.43;5.07;;;33.30;66.00;;;;;;5026547;28;20450;-50
2021/07/30 08:39:37;;;;;;;11.98;5.80;;;33.40;65.40;;;;;;5023830;28;20042;-52
2021/07/30 08:42:04;;;;;;;8.63;5.03;;;32.90;63.90;;;;;;4986728;28;20052;-52
2021/07/30 08:44:32;;;;;;;7.30;4.70;;;33.10;65.70;;;;;;5031086;28;20104;-52
2021/07/30 08:46:58;;;;;;;10.48;4.15;;;33.10;63.50;;;;;;5027303;28;20108;-51
2021/07/30 08:49:25;;;;;;;6.25;4.22;;;33.20;64.40;;;;;;5026071;28;20470;-53
2021/07/30 08:52:10;;;;;;;6.05;4.03;;;33.60;63.60;;;;;;5026828;28;20025;-51
2021/07/30 08:54:36;;;;;;;9.13;5.20;;;33.80;63.70;;;;;;5023850;28;20404;-52
2021/07/30 08:57:10;;;;;;;10.32;4.85;;;34.10;63.90;;;;;;5025222;28;20523;-52
2021/07/30 08:59:39;;;;;;;8.27;4.10;;;34.30;63.60;;;;;;5016598;28;20366;-46
2021/07/30 09:02:05;;;;;;;10.75;3.97;;;34.30;62.70;;;;;;5016523;28;20038;-46
2021/07/30 09:04:31;;;;;;;6.93;3.67;;;34.50;60.60;;;;;;5016113;28;20026;-47
2021/07/30 09:07:00;;;;;;;7.47;3.67;;;34.50;62.40;;;;;;4998128;28;20429;-45
2021/07/30 09:09:26;;;;;;;4.95;3.40;;;34.70;68.20;;;;;;5016272;28;20050;-46
2021/07/30 09:11:54;;;;;;;6.22;4.47;;;34.90;60.70;;;;;;4997731;28;20492;-47
2021/07/30 09:14:44;;;;;;;6.70;4.35;;;34.40;60.50;;;;;;5016257;28;20573;-47
2021/07/30 09:17:10;;;;;;;11.23;4.53;;;;;;;;;;5015806;28;20034;-45
2021/07/30 09:19:56;;;;;;;11.05;4.63;;;;;;;;;;5016251;28;20033;-48
2021/07/30 09:22:22;;;;;;;5.47;4.13;;;34.80;92.80;;;;;;5016222;28;20033;-47
2021/07/30 09:24:56;;;;;;;5.35;3.80;;;35.00;76.10;;;;;;5015616;28;20568;-45
2021/07/30 09:27:22;;;;;;;8.07;4.20;;;35.30;61.90;;;;;;5015785;28;20041;-47
2021/07/30 09:29:47;;;;;;;6.10;3.58;;;35.20;61.60;;;;;;5016033;28;20076;-48
2021/07/30 09:32:15;;;;;;;12.07;4.47;;;35.20;62.40;;;;;;5015608;28;20033;-48
2021/07/30 09:34:47;;;;;;;9.15;4.43;;;;;;;;;;5015941;28;20064;-48
2021/07/30 09:37:17;;;;;;;9.85;4.03;;;35.40;60.90;;;;;;5015717;28;20022;-47
2021/07/30 09:39:45;;;;;;;11.23;4.45;;;35.40;61.50;;;;;;5015547;28;20030;-45
2021/07/30 09:42:22;;;;;;;8.35;4.35;;;35.80;62.00;;;;;;5015851;28;20068;-47
2021/07/30 09:44:51;;;;;;;8.90;4.10;;;;;;;;;;4998387;28;20168;-47
2021/07/30 09:47:22;;;;;;;11.73;4.40;;;35.50;60.00;;;;;;5015256;28;20091;-47
2021/07/30 09:50:09;;;;;;;13.05;4.40;;;35.90;61.50;;;;;;5015318;28;20064;-48
2021/07/30 09:52:38;;;;;;;9.90;4.07;;;36.10;60.60;;;;;;4997549;28;20533;-48
2021/07/30 09:55:07;;;;;;;9.05;3.78;;;36.30;58.90;;;;;;5015218;28;20121;-49
2021/07/30 09:57:52;;;;;;;11.43;4.25;;;36.20;59.40;;;;;;4980983;28;20199;-46
2021/07/30 10:00:19;;;;;;;9.98;4.07;;;;;;;;;;4996840;28;20069;-47
2021/07/30 10:02:46;;;;;;;9.50;4.80;;;36.10;58.10;;;;;;5015016;28;20528;-47
2021/07/30 10:05:16;;;;;;;5.88;4.18;;;36.20;58.60;;;;;;5015503;28;20145;-49
2021/07/30 10:07:43;;;;;;;7.50;4.18;;;36.50;58.70;;;;;;5015472;28;20025;-47
2021/07/30 10:10:15;;;;;;;8.98;4.00;;;;;;;;;;5014704;28;20408;-47
2021/07/30 10:12:52;;;;;;;11.90;4.03;;;36.80;57.80;;;;;;5015144;28;20041;-47
2021/07/30 10:15:18;;;;;;;9.15;4.43;;;36.70;57.90;;;;;;5015268;28;20152;-48
2021/07/30 10:17:46;;;;;;;11.00;4.05;;;37.10;58.20;;;;;;5014883;28;20034;-48
2021/07/30 10:20:13;;;;;;;9.13;3.95;;;36.90;56.90;;;;;;5012409;28;20049;-49
2021/07/30 10:22:51;;;;;;;10.93;4.13;;;;;;;;;;5030026;28;20116;-52
2021/07/30 10:25:27;;;;;;;11.57;4.32;;;36.60;57.50;;;;;;5023760;28;20156;-51
2021/07/30 10:28:11;;;;;;;14.55;5.10;;;36.70;57.20;;;;;;5022731;28;20061;-53
2021/07/30 10:30:55;;;;;;;9.70;4.32;;;37.00;57.30;;;;;;5014109;28;20045;-48
2021/07/30 10:33:30;;;;;;;18.42;4.47;;;37.40;57.30;;;;;;5038528;28;20033;-54
2021/07/30 10:35:59;;;;;;;11.55;4.65;;;37.70;58.00;;;;;;5038785;28;20042;-59
2021/07/30 10:38:25;;;;;;;8.65;4.50;;;38.00;59.20;;;;;;5022384;28;20056;-51
2021/07/30 10:41:06;;;;;;;8.48;4.53;;;38.30;57.20;;;;;;5025387;28;20040;-49
2021/07/30 10:43:50;;;;;;;10.00;4.53;;;37.80;56.10;;;;;;5022093;28;20025;-50
2021/07/30 10:46:18;;;;;;;15.38;4.90;;;38.10;56.70;;;;;;5020928;28;20057;-51
2021/07/30 10:48:44;;;;;;;8.32;4.43;;;37.90;56.60;;;;;;5023452;28;20419;-56
2021/07/30 10:51:22;;;;;;;14.15;4.68;;;37.90;56.20;;;;;;5023212;28;20056;-49
2021/07/30 10:53:49;;;;;;;10.65;4.63;;;38.10;56.80;;;;;;5024128;28;20124;-48
2021/07/30 10:56:18;;;;;;;12.32;4.95;;;37.70;55.80;;;;;;5011533;28;20083;-50
2021/07/30 10:58:43;;;;;;;10.05;4.97;;;37.90;56.30;;;;;;5022729;28;20061;-49
2021/07/30 11:01:17;;;;;;;10.40;4.50;;;38.00;56.10;;;;;;5022737;28;20099;-51
2021/07/30 11:03:49;;;;;;;12.07;4.70;;;38.40;55.60;;;;;;4992064;28;20041;-49
2021/07/30 11:06:24;;;;;;;11.65;5.43;;;37.70;54.90;;;;;;5021390;28;20030;-49
2021/07/30 11:09:03;;;;;;;11.93;5.35;;;38.30;56.30;;;;;;5006226;28;20061;-49
2021/07/30 11:11:44;;;;;;;8.55;5.10;;;38.50;55.40;;;;;;5022172;28;20034;-48
2021/07/30 11:14:13;;;;;;;9.50;4.63;;;38.70;55.90;;;;;;5022262;28;20026;-47
2021/07/30 11:16:44;;;;;;;12.63;5.72;;;37.70;54.70;;;;;;5021465;28;21651;-48
2021/07/30 11:19:11;;;;;;;;;;;38.30;55.50;;;;;;5022789;28;20424;-49
2021/07/30 11:21:37;;;;;;;10.45;4.93;;;38.30;55.90;;;;;;5021723;28;19909;-48
2021/07/30 11:24:04;;;;;;;8.52;4.68;;;38.20;55.90;;;;;;5018684;28;20026;-49
2021/07/30 11:26:32;;;;;;;9.10;5.75;;;38.40;55.70;;;;;;4998638;28;20180;-49
2021/07/30 11:29:05;;;;;;;13.40;5.88;;;38.10;55.10;;;;;;4983732;28;20061;-49
2021/07/30 11:31:31;;;;;;;11.45;5.00;;;38.60;55.90;;;;;;4999442;28;20603;-48
2021/07/30 11:33:57;;;;;;;11.93;6.50;;;38.60;55.60;;;;;;5000250;28;20034;-54
2021/07/30 11:36:23;;;;;;;9.52;4.57;;;38.50;56.00;;;;;;4979514;28;20047;-54
2021/07/30 11:38:57;;;;;;;12.18;5.10;;;38.30;55.80;;;;;;4965642;28;20038;-52
2021/07/30 11:41:24;;;;;;;8.23;5.00;;;38.80;56.80;;;;;;4982054;28;20039;-53
2021/07/30 11:44:16;;;;;;;11.05;4.65;;;38.90;56.00;;;;;;4980215;28;20478;-52
2021/07/30 11:46:52;;;;;;;12.13;4.80;;;38.60;54.30;;;;;;4962887;28;20090;-52
2021/07/30 11:49:27;;;;;;;8.55;4.75;;;38.80;54.40;;;;;;4980850;28;20046;-49
2021/07/30 11:51:53;;;;;;;8.57;4.60;;;37.60;54.80;;;;;;4980676;28;20050;-54
2021/07/30 11:54:26;;;;;;;9.35;5.10;;;37.90;55.70;;;;;;4930811;28;20038;-52
2021/07/30 11:56:53;;;;;;;11.15;5.50;;;38.50;57.20;;;;;;4962461;28;20041;-48
2021/07/30 11:59:19;;;;;;;6.32;4.57;;;38.70;56.20;;;;;;4993943;28;20046;-48
2021/07/30 12:02:02;;;;;;;14.98;4.65;;;38.80;55.80;;;;;;5005204;28;20053;-56
2021/07/30 12:04:28;;;;;;;9.55;5.38;;;38.80;56.30;;;;;;4969674;28;20064;-55
2021/07/30 12:07:16;;;;;;;7.80;4.57;;;39.00;55.20;;;;;;4990971;28;20080;-57
2021/07/30 12:09:44;;;;;;;8.70;5.10;;;39.00;55.50;;;;;;5036507;28;20029;-59
2021/07/30 12:12:13;;;;;;;12.00;4.72;;;39.30;55.70;;;;;;5036968;28;20025;-58
2021/07/30 12:14:40;;;;;;;8.85;4.78;;;39.10;54.90;;;;;;5025787;28;20080;-59
2021/07/30 12:17:07;;;;;;;7.97;4.88;;;39.30;53.80;;;;;;5013887;28;20045;-56
2021/07/30 12:19:35;;;;;;;11.93;5.50;;;39.80;61.30;;;;;;5022413;28;20041;-57
2021/07/30 12:22:06;;;;;;;8.73;5.47;;;39.60;54.60;;;;;;5020929;28;20037;-56
2021/07/30 12:24:33;;;;;;;12.50;5.90;;;39.30;52.70;;;;;;5016546;28;20369;-53
2021/07/30 12:27:19;;;;;;;13.10;4.75;;;39.70;54.10;;;;;;5026946;28;20026;-52
2021/07/30 12:29:47;;;;;;;11.55;5.20;;;39.80;54.00;;;;;;5031334;28;20041;-50
2021/07/30 12:32:22;;;;;;;12.52;5.45;;;39.30;53.00;;;;;;5035100;28;20124;-53
2021/07/30 12:34:55;;;;;;;8.25;4.93;;;39.30;52.70;;;;;;5024959;28;20074;-53
2021/07/30 12:37:21;;;;;;;11.85;5.00;;;39.70;54.40;;;;;;5034587;28;20033;-55
2021/07/30 12:39:48;;;;;;;13.90;4.70;;;39.60;54.50;;;;;;5034830;28;20045;-53
2021/07/30 12:42:21;;;;;;;8.82;5.28;;;38.90;53.30;;;;;;5036687;28;20021;-51
2021/07/30 12:45:06;;;;;;;11.88;5.20;;;38.90;53.50;;;;;;5018238;28;20041;-60
2021/07/30 12:47:34;;;;;;;6.50;4.97;;;39.00;53.10;;;;;;5035685;28;20097;-58
2021/07/30 12:50:21;;;;;;;9.57;4.80;;;39.30;53.30;;;;;;5036333;28;20076;-57
2021/07/30 12:53:10;;;;;;;11.25;5.20;;;39.50;53.10;;;;;;5036270;28;20473;-56
2021/07/30 12:56:02;;;;;;;8.75;4.97;;;39.20;54.50;;;;;;5036109;28;20033;-59
2021/07/30 12:58:38;;;;;;;12.25;4.97;;;38.80;53.80;;;;;;5015290;28;20064;-60
2021/07/30 13:01:11;;;;;;;10.43;6.18;;;;;;;;;;5036252;28;20061;-55
2021/07/30 13:03:38;;;;;;;14.95;5.40;;;38.40;61.80;;;;;;5035900;28;20483;-59
2021/07/30 13:06:07;;;;;;;9.25;5.45;;;38.70;56.80;;;;;;5017717;28;20030;-59
2021/07/30 13:08:37;;;;;;;12.68;5.13;;;38.70;59.10;;;;;;5035927;28;20029;-59
2021/07/30 13:11:04;;;;;;;10.10;5.00;;;38.40;70.50;;;;;;5036110;28;20028;-62
2021/07/30 13:13:32;;;;;;;9.07;5.22;;;38.80;69.20;;;;;;5032982;28;20038;-57
2021/07/30 13:15:58;;;;;;;13.25;5.78;;;39.20;53.20;;;;;;5034909;28;20033;-60
2021/07/30 13:18:24;;;;;;;10.82;4.95;;;39.10;53.80;;;;;;5034936;28;20025;-63
2021/07/30 13:20:50;;;;;;;7.43;4.57;;;39.30;52.20;;;;;;5034586;28;20475;-56
2021/07/30 13:23:17;;;;;;;9.00;4.82;;;39.60;54.00;;;;;;5034662;28;20029;-56
2021/07/30 13:25:44;;;;;;;9.95;5.25;;;38.90;54.90;;;;;;5034603;28;20030;-62
2021/07/30 13:28:10;;;;;;;9.57;5.60;;;38.70;64.40;;;;;;5032302;28;20124;-60
2021/07/30 13:30:37;;;;;;;9.18;4.60;;;38.70;69.00;;;;;;5034433;28;20104;-61